sensor_id;sensor_type;location;lat;lon;timestamp;temperature;humidity
67279;DHT22;54193;53.746;10.058;2023-11-18T00:01:20;4.86;90.21
67279;DHT22;54193;53.746;10.058;2023-11-18T00:04:06;4.80;90.26
67279;DHT22;54193;53.746;10.058;2023-11-18T00:07:00;4.83;90.30
67279;DHT22;54193;53.746;10.058;2023-11-18T00:09:46;4.76;90.50
67279;DHT22;54193;53.746;10.058;2023-11-18T00:12:32;4.87;90.49
67279;DHT22;54193;53.746;10.058;2023-11-18T00:15:21;4.89;90.45
67279;DHT22;54193;53.746;10.058;2023-11-18T00:18:07;4.77;90.70
67279;DHT22;54193;53.746;10.058;2023-11-18T00:20:52;4.76;90.82
67279;DHT22;54193;53.746;10.058;2023-11-18T00:23:38;4.82;90.65
67279;DHT22;54193;53.746;10.058;2023-11-18T00:26:24;4.79;90.69
67279;DHT22;54193;53.746;10.058;2023-11-18T00:29:11;4.83;90.84
67279;DHT22;54193;53.746;10.058;2023-11-18T00:31:56;4.83;90.69
67279;DHT22;54193;53.746;10.058;2023-11-18T00:34:42;4.77;90.83
67279;DHT22;54193;53.746;10.058;2023-11-18T00:37:30;4.77;91.10
67279;DHT22;54193;53.746;10.058;2023-11-18T00:40:16;4.84;90.88
67279;DHT22;54193;53.746;10.058;2023-11-18T00:43:04;4.89;90.83
67279;DHT22;54193;53.746;10.058;2023-11-18T00:45:50;5.04;90.80
67279;DHT22;54193;53.746;10.058;2023-11-18T00:48:36;5.01;90.62
67279;DHT22;54193;53.746;10.058;2023-11-18T00:51:22;5.06;90.38
67279;DHT22;54193;53.746;10.058;2023-11-18T00:54:08;4.97;90.39
67279;DHT22;54193;53.746;10.058;2023-11-18T00:56:55;5.03;90.50
67279;DHT22;54193;53.746;10.058;2023-11-18T00:59:43;5.10;90.50
67279;DHT22;54193;53.746;10.058;2023-11-18T01:02:29;5.20;90.50
67279;DHT22;54193;53.746;10.058;2023-11-18T01:05:15;5.20;90.26
67279;DHT22;54193;53.746;10.058;2023-11-18T01:08:01;5.11;90.04
67279;DHT22;54193;53.746;10.058;2023-11-18T01:10:46;5.17;90.17
67279;DHT22;54193;53.746;10.058;2023-11-18T01:13:32;5.16;90.18
67279;DHT22;54193;53.746;10.058;2023-11-18T01:16:20;5.14;90.23
67279;DHT22;54193;53.746;10.058;2023-11-18T01:19:07;4.99;90.31
67279;DHT22;54193;53.746;10.058;2023-11-18T01:21:54;4.92;90.60
67279;DHT22;54193;53.746;10.058;2023-11-18T01:24:41;4.99;90.80
67279;DHT22;54193;53.746;10.058;2023-11-18T01:27:26;5.00;90.75
67279;DHT22;54193;53.746;10.058;2023-11-18T01:30:13;5.07;90.57
67279;DHT22;54193;53.746;10.058;2023-11-18T01:33:00;5.10;90.39
67279;DHT22;54193;53.746;10.058;2023-11-18T01:35:46;5.13;90.49
67279;DHT22;54193;53.746;10.058;2023-11-18T01:38:31;5.11;90.30
67279;DHT22;54193;53.746;10.058;2023-11-18T01:41:17;4.99;90.37
67279;DHT22;54193;53.746;10.058;2023-11-18T01:44:04;4.79;90.75
67279;DHT22;54193;53.746;10.058;2023-11-18T01:46:50;4.76;91.02
67279;DHT22;54193;53.746;10.058;2023-11-18T01:49:37;4.80;90.99
67279;DHT22;54193;53.746;10.058;2023-11-18T01:52:28;4.83;90.80
67279;DHT22;54193;53.746;10.058;2023-11-18T01:55:15;4.79;90.73
67279;DHT22;54193;53.746;10.058;2023-11-18T01:58:02;4.68;90.81
67279;DHT22;54193;53.746;10.058;2023-11-18T02:00:55;4.49;90.65
67279;DHT22;54193;53.746;10.058;2023-11-18T02:03:40;4.27;90.53
67279;DHT22;54193;53.746;10.058;2023-11-18T02:06:27;4.10;90.62
67279;DHT22;54193;53.746;10.058;2023-11-18T02:09:18;3.94;90.97
67279;DHT22;54193;53.746;10.058;2023-11-18T02:15:08;3.63;91.30
67279;DHT22;54193;53.746;10.058;2023-11-18T02:17:57;3.46;91.50
67279;DHT22;54193;53.746;10.058;2023-11-18T02:20:44;3.30;91.90
67279;DHT22;54193;53.746;10.058;2023-11-18T02:23:31;3.20;91.89
67279;DHT22;54193;53.746;10.058;2023-11-18T02:26:23;3.13;91.93
67279;DHT22;54193;53.746;10.058;2023-11-18T02:29:09;3.01;91.96
67279;DHT22;54193;53.746;10.058;2023-11-18T02:32:00;2.93;92.21
67279;DHT22;54193;53.746;10.058;2023-11-18T02:35:09;2.97;92.75
67279;DHT22;54193;53.746;10.058;2023-11-18T02:37:57;3.08;92.87
67279;DHT22;54193;53.746;10.058;2023-11-18T02:40:45;3.21;92.98
67279;DHT22;54193;53.746;10.058;2023-11-18T02:43:34;3.31;93.09
67279;DHT22;54193;53.746;10.058;2023-11-18T02:46:22;3.46;93.48
67279;DHT22;54193;53.746;10.058;2023-11-18T02:49:09;3.46;93.67
67279;DHT22;54193;53.746;10.058;2023-11-18T02:51:55;3.43;93.59
67279;DHT22;54193;53.746;10.058;2023-11-18T02:54:41;3.38;93.71
67279;DHT22;54193;53.746;10.058;2023-11-18T02:57:26;3.38;93.99
67279;DHT22;54193;53.746;10.058;2023-11-18T03:00:13;3.41;93.97
67279;DHT22;54193;53.746;10.058;2023-11-18T03:03:07;3.60;93.74
67279;DHT22;54193;53.746;10.058;2023-11-18T03:05:53;3.58;93.54
67279;DHT22;54193;53.746;10.058;2023-11-18T03:08:38;3.38;93.81
67279;DHT22;54193;53.746;10.058;2023-11-18T03:11:26;3.39;93.92
67279;DHT22;54193;53.746;10.058;2023-11-18T03:14:15;3.49;93.80
67279;DHT22;54193;53.746;10.058;2023-11-18T03:17:01;3.59;93.63
67279;DHT22;54193;53.746;10.058;2023-11-18T03:19:47;3.60;93.52
67279;DHT22;54193;53.746;10.058;2023-11-18T03:22:33;3.48;93.38
67279;DHT22;54193;53.746;10.058;2023-11-18T03:25:20;3.59;93.85
67279;DHT22;54193;53.746;10.058;2023-11-18T03:28:07;3.83;93.73
67279;DHT22;54193;53.746;10.058;2023-11-18T03:30:53;3.87;93.62
67279;DHT22;54193;53.746;10.058;2023-11-18T03:33:39;3.94;93.59
67279;DHT22;54193;53.746;10.058;2023-11-18T03:36:25;3.82;93.47
67279;DHT22;54193;53.746;10.058;2023-11-18T03:39:11;3.98;93.48
67279;DHT22;54193;53.746;10.058;2023-11-18T03:41:56;4.06;93.47
67279;DHT22;54193;53.746;10.058;2023-11-18T03:44:42;4.13;93.42
67279;DHT22;54193;53.746;10.058;2023-11-18T03:47:28;4.20;93.40
67279;DHT22;54193;53.746;10.058;2023-11-18T03:50:16;4.18;93.27
67279;DHT22;54193;53.746;10.058;2023-11-18T03:53:02;4.20;93.22
67279;DHT22;54193;53.746;10.058;2023-11-18T03:55:50;4.13;93.03
67279;DHT22;54193;53.746;10.058;2023-11-18T03:58:37;4.08;93.25
67279;DHT22;54193;53.746;10.058;2023-11-18T04:01:25;4.18;93.22
67279;DHT22;54193;53.746;10.058;2023-11-18T04:04:14;4.28;93.28
67279;DHT22;54193;53.746;10.058;2023-11-18T04:06:59;4.41;93.19
67279;DHT22;54193;53.746;10.058;2023-11-18T04:09:48;4.42;93.01
67279;DHT22;54193;53.746;10.058;2023-11-18T04:12:34;4.38;92.82
67279;DHT22;54193;53.746;10.058;2023-11-18T04:15:19;4.37;92.77
67279;DHT22;54193;53.746;10.058;2023-11-18T04:18:05;4.38;92.84
67279;DHT22;54193;53.746;10.058;2023-11-18T04:20:51;4.42;92.73
67279;DHT22;54193;53.746;10.058;2023-11-18T04:23:41;4.42;92.65
67279;DHT22;54193;53.746;10.058;2023-11-18T04:26:27;4.45;92.66
67279;DHT22;54193;53.746;10.058;2023-11-18T04:29:12;4.44;92.72
67279;DHT22;54193;53.746;10.058;2023-11-18T04:31:58;4.44;92.67
67279;DHT22;54193;53.746;10.058;2023-11-18T04:34:45;4.46;92.66
67279;DHT22;54193;53.746;10.058;2023-11-18T04:37:30;4.51;92.64
67279;DHT22;54193;53.746;10.058;2023-11-18T04:40:16;4.49;92.54
67279;DHT22;54193;53.746;10.058;2023-11-18T04:43:02;4.53;92.48
67279;DHT22;54193;53.746;10.058;2023-11-18T04:45:47;4.52;92.39
67279;DHT22;54193;53.746;10.058;2023-11-18T04:48:33;4.44;92.45
67279;DHT22;54193;53.746;10.058;2023-11-18T04:51:21;4.48;92.53
67279;DHT22;54193;53.746;10.058;2023-11-18T04:54:09;4.53;92.54
67279;DHT22;54193;53.746;10.058;2023-11-18T04:56:56;4.52;92.50
67279;DHT22;54193;53.746;10.058;2023-11-18T04:59:42;4.55;92.56
67279;DHT22;54193;53.746;10.058;2023-11-18T05:02:28;4.58;92.46
67279;DHT22;54193;53.746;10.058;2023-11-18T05:05:15;4.59;92.47
67279;DHT22;54193;53.746;10.058;2023-11-18T05:08:01;4.59;92.50
67279;DHT22;54193;53.746;10.058;2023-11-18T05:10:49;4.69;92.53
67279;DHT22;54193;53.746;10.058;2023-11-18T05:13:36;4.73;92.46
67279;DHT22;54193;53.746;10.058;2023-11-18T05:16:25;4.73;92.30
67279;DHT22;54193;53.746;10.058;2023-11-18T05:19:11;4.66;92.10
67279;DHT22;54193;53.746;10.058;2023-11-18T05:21:56;4.59;92.10
67279;DHT22;54193;53.746;10.058;2023-11-18T05:24:43;4.55;92.06
67279;DHT22;54193;53.746;10.058;2023-11-18T05:27:29;4.55;92.08
67279;DHT22;54193;53.746;10.058;2023-11-18T05:30:15;4.52;92.07
67279;DHT22;54193;53.746;10.058;2023-11-18T05:33:06;4.53;92.09
67279;DHT22;54193;53.746;10.058;2023-11-18T05:35:51;4.55;92.20
67279;DHT22;54193;53.746;10.058;2023-11-18T05:38:37;4.53;92.23
67279;DHT22;54193;53.746;10.058;2023-11-18T05:41:23;4.51;92.23
67279;DHT22;54193;53.746;10.058;2023-11-18T05:44:13;4.53;92.26
67279;DHT22;54193;53.746;10.058;2023-11-18T05:47:03;4.56;92.09
67279;DHT22;54193;53.746;10.058;2023-11-18T05:49:49;4.58;92.08
67279;DHT22;54193;53.746;10.058;2023-11-18T05:52:34;4.53;92.13
67279;DHT22;54193;53.746;10.058;2023-11-18T05:55:20;4.51;92.13
67279;DHT22;54193;53.746;10.058;2023-11-18T05:58:06;4.48;92.22
67279;DHT22;54193;53.746;10.058;2023-11-18T06:00:54;4.48;92.22
67279;DHT22;54193;53.746;10.058;2023-11-18T06:03:41;4.42;92.31
67279;DHT22;54193;53.746;10.058;2023-11-18T06:06:27;4.42;92.32
67279;DHT22;54193;53.746;10.058;2023-11-18T06:09:13;4.40;92.41
67279;DHT22;54193;53.746;10.058;2023-11-18T06:12:03;4.41;92.42
67279;DHT22;54193;53.746;10.058;2023-11-18T06:14:55;4.44;92.44
67279;DHT22;54193;53.746;10.058;2023-11-18T06:17:43;4.37;92.46
67279;DHT22;54193;53.746;10.058;2023-11-18T06:20:29;4.35;92.73
67279;DHT22;54193;53.746;10.058;2023-11-18T06:23:14;4.38;92.67
67279;DHT22;54193;53.746;10.058;2023-11-18T06:26:05;4.48;92.62
67279;DHT22;54193;53.746;10.058;2023-11-18T06:28:51;4.42;92.46
67279;DHT22;54193;53.746;10.058;2023-11-18T06:31:39;4.48;92.51
67279;DHT22;54193;53.746;10.058;2023-11-18T06:34:24;4.49;92.50
67279;DHT22;54193;53.746;10.058;2023-11-18T06:37:12;4.45;92.42
67279;DHT22;54193;53.746;10.058;2023-11-18T06:39:58;4.45;92.40
67279;DHT22;54193;53.746;10.058;2023-11-18T06:42:43;4.44;92.45
67279;DHT22;54193;53.746;10.058;2023-11-18T06:45:32;4.48;92.36
67279;DHT22;54193;53.746;10.058;2023-11-18T06:48:18;4.46;92.37
67279;DHT22;54193;53.746;10.058;2023-11-18T06:51:05;4.49;92.31
67279;DHT22;54193;53.746;10.058;2023-11-18T06:53:54;4.48;92.38
67279;DHT22;54193;53.746;10.058;2023-11-18T06:56:43;4.41;92.61
67279;DHT22;54193;53.746;10.058;2023-11-18T06:59:28;4.38;92.56
67279;DHT22;54193;53.746;10.058;2023-11-18T07:02:14;4.40;92.57
67279;DHT22;54193;53.746;10.058;2023-11-18T07:05:00;4.42;92.48
67279;DHT22;54193;53.746;10.058;2023-11-18T07:07:46;4.46;92.54
67279;DHT22;54193;53.746;10.058;2023-11-18T07:10:32;4.56;92.52
67279;DHT22;54193;53.746;10.058;2023-11-18T07:13:18;4.63;92.62
67279;DHT22;54193;53.746;10.058;2023-11-18T07:16:03;4.65;92.64
67279;DHT22;54193;53.746;10.058;2023-11-18T07:18:51;4.63;92.56
67279;DHT22;54193;53.746;10.058;2023-11-18T07:21:36;4.66;92.63
67279;DHT22;54193;53.746;10.058;2023-11-18T07:24:22;4.71;92.53
67279;DHT22;54193;53.746;10.058;2023-11-18T07:27:08;4.72;92.58
67279;DHT22;54193;53.746;10.058;2023-11-18T07:29:56;4.77;92.54
67279;DHT22;54193;53.746;10.058;2023-11-18T07:32:43;4.82;92.48
67279;DHT22;54193;53.746;10.058;2023-11-18T07:35:29;4.84;92.33
67279;DHT22;54193;53.746;10.058;2023-11-18T07:38:15;4.75;92.36
67279;DHT22;54193;53.746;10.058;2023-11-18T07:41:02;4.75;92.23
67279;DHT22;54193;53.746;10.058;2023-11-18T07:43:51;4.89;91.83
67279;DHT22;54193;53.746;10.058;2023-11-18T07:46:41;4.90;91.45
67279;DHT22;54193;53.746;10.058;2023-11-18T07:49:28;4.89;91.24
67279;DHT22;54193;53.746;10.058;2023-11-18T07:52:13;4.80;91.39
67279;DHT22;54193;53.746;10.058;2023-11-18T07:54:59;4.83;91.20
67279;DHT22;54193;53.746;10.058;2023-11-18T07:57:48;4.84;91.22
67279;DHT22;54193;53.746;10.058;2023-11-18T08:00:34;4.84;91.23
67279;DHT22;54193;53.746;10.058;2023-11-18T08:03:21;4.89;91.19
67279;DHT22;54193;53.746;10.058;2023-11-18T08:06:07;5.00;91.18
67279;DHT22;54193;53.746;10.058;2023-11-18T08:08:53;5.09;91.02
67279;DHT22;54193;53.746;10.058;2023-11-18T08:11:41;5.11;90.55
67279;DHT22;54193;53.746;10.058;2023-11-18T08:14:27;5.18;90.57
67279;DHT22;54193;53.746;10.058;2023-11-18T08:17:14;5.27;90.46
67279;DHT22;54193;53.746;10.058;2023-11-18T08:20:00;5.39;90.50
67279;DHT22;54193;53.746;10.058;2023-11-18T08:22:45;5.48;89.96
67279;DHT22;54193;53.746;10.058;2023-11-18T08:25:31;5.55;89.45
67279;DHT22;54193;53.746;10.058;2023-11-18T08:28:21;5.66;89.22
67279;DHT22;54193;53.746;10.058;2023-11-18T08:31:06;5.63;89.05
67279;DHT22;54193;53.746;10.058;2023-11-18T08:33:52;5.60;89.05
67279;DHT22;54193;53.746;10.058;2023-11-18T08:36:42;5.59;88.82
67279;DHT22;54193;53.746;10.058;2023-11-18T08:39:29;5.62;88.67
67279;DHT22;54193;53.746;10.058;2023-11-18T08:42:16;5.80;88.92
67279;DHT22;54193;53.746;10.058;2023-11-18T08:45:03;6.00;88.32
67279;DHT22;54193;53.746;10.058;2023-11-18T08:47:49;6.09;87.78
67279;DHT22;54193;53.746;10.058;2023-11-18T08:50:35;6.38;87.52
67279;DHT22;54193;53.746;10.058;2023-11-18T08:53:21;6.80;86.42
67279;DHT22;54193;53.746;10.058;2023-11-18T08:56:11;7.26;85.22
67279;DHT22;54193;53.746;10.058;2023-11-18T08:59:01;7.59;83.70
67279;DHT22;54193;53.746;10.058;2023-11-18T09:01:47;7.69;82.92
67279;DHT22;54193;53.746;10.058;2023-11-18T09:04:34;7.69;82.76
67279;DHT22;54193;53.746;10.058;2023-11-18T09:07:20;7.51;82.67
67279;DHT22;54193;53.746;10.058;2023-11-18T09:10:06;7.56;83.18
67279;DHT22;54193;53.746;10.058;2023-11-18T09:12:54;7.21;84.02
67279;DHT22;54193;53.746;10.058;2023-11-18T09:15:40;7.08;84.75
67279;DHT22;54193;53.746;10.058;2023-11-18T09:18:26;6.79;85.52
67279;DHT22;54193;53.746;10.058;2023-11-18T09:21:21;6.37;86.52
67279;DHT22;54193;53.746;10.058;2023-11-18T09:24:15;6.28;87.39
67279;DHT22;54193;53.746;10.058;2023-11-18T09:27:05;6.42;87.19
67279;DHT22;54193;53.746;10.058;2023-11-18T09:29:51;6.53;86.01
67279;DHT22;54193;53.746;10.058;2023-11-18T09:32:37;6.88;84.75
67279;DHT22;54193;53.746;10.058;2023-11-18T09:35:25;6.85;84.38
67279;DHT22;54193;53.746;10.058;2023-11-18T09:38:13;6.67;84.18
67279;DHT22;54193;53.746;10.058;2023-11-18T09:40:59;6.67;84.66
67279;DHT22;54193;53.746;10.058;2023-11-18T09:43:48;6.56;82.95
67279;DHT22;54193;53.746;10.058;2023-11-18T09:46:41;6.61;83.59
67279;DHT22;54193;53.746;10.058;2023-11-18T09:49:39;6.64;83.93
67279;DHT22;54193;53.746;10.058;2023-11-18T09:52:26;6.52;84.01
67279;DHT22;54193;53.746;10.058;2023-11-18T09:55:17;6.38;82.99
67279;DHT22;54193;53.746;10.058;2023-11-18T09:58:06;6.49;82.14
67279;DHT22;54193;53.746;10.058;2023-11-18T10:00:58;6.65;82.15
67279;DHT22;54193;53.746;10.058;2023-11-18T10:03:47;6.78;82.42
67279;DHT22;54193;53.746;10.058;2023-11-18T10:06:35;6.75;81.25
67279;DHT22;54193;53.746;10.058;2023-11-18T10:09:20;6.73;81.11
67279;DHT22;54193;53.746;10.058;2023-11-18T10:12:13;6.56;81.45
67279;DHT22;54193;53.746;10.058;2023-11-18T10:15:02;6.58;81.09
67279;DHT22;54193;53.746;10.058;2023-11-18T10:17:57;6.69;80.03
67279;DHT22;54193;53.746;10.058;2023-11-18T10:20:46;6.68;79.45
67279;DHT22;54193;53.746;10.058;2023-11-18T10:23:32;6.67;79.06
67279;DHT22;54193;53.746;10.058;2023-11-18T10:26:19;6.80;79.17
67279;DHT22;54193;53.746;10.058;2023-11-18T10:29:11;6.83;78.41
67279;DHT22;54193;53.746;10.058;2023-11-18T10:32:07;6.85;78.13
67279;DHT22;54193;53.746;10.058;2023-11-18T10:34:57;6.80;77.71
67279;DHT22;54193;53.746;10.058;2023-11-18T10:37:43;6.73;77.27
67279;DHT22;54193;53.746;10.058;2023-11-18T10:40:29;6.73;77.30
67279;DHT22;54193;53.746;10.058;2023-11-18T10:43:16;6.75;77.30
67279;DHT22;54193;53.746;10.058;2023-11-18T10:46:06;6.79;78.08
67279;DHT22;54193;53.746;10.058;2023-11-18T10:48:59;6.83;77.13
67279;DHT22;54193;53.746;10.058;2023-11-18T10:51:45;6.79;76.48
67279;DHT22;54193;53.746;10.058;2023-11-18T10:54:33;6.92;76.54
67279;DHT22;54193;53.746;10.058;2023-11-18T10:57:20;6.97;76.38
67279;DHT22;54193;53.746;10.058;2023-11-18T11:00:06;6.99;75.65
67279;DHT22;54193;53.746;10.058;2023-11-18T11:02:59;7.11;75.59
67279;DHT22;54193;53.746;10.058;2023-11-18T11:05:46;6.90;75.79
67279;DHT22;54193;53.746;10.058;2023-11-18T11:08:32;7.14;76.23
67279;DHT22;54193;53.746;10.058;2023-11-18T11:11:21;7.27;76.25
67279;DHT22;54193;53.746;10.058;2023-11-18T11:14:08;7.32;76.45
67279;DHT22;54193;53.746;10.058;2023-11-18T11:16:57;7.43;75.91
67279;DHT22;54193;53.746;10.058;2023-11-18T11:20:05;7.38;75.17
67279;DHT22;54193;53.746;10.058;2023-11-18T11:23:30;7.20;74.97
67279;DHT22;54193;53.746;10.058;2023-11-18T11:26:34;7.31;75.37
67279;DHT22;54193;53.746;10.058;2023-11-18T11:29:29;7.45;75.42
67279;DHT22;54193;53.746;10.058;2023-11-18T11:32:31;7.45;75.91
67279;DHT22;54193;53.746;10.058;2023-11-18T11:35:29;7.52;76.01
67279;DHT22;54193;53.746;10.058;2023-11-18T11:38:16;7.43;75.10
67279;DHT22;54193;53.746;10.058;2023-11-18T11:41:05;7.44;75.62
67279;DHT22;54193;53.746;10.058;2023-11-18T11:43:53;7.47;75.57
67279;DHT22;54193;53.746;10.058;2023-11-18T11:46:43;7.50;76.06
67279;DHT22;54193;53.746;10.058;2023-11-18T11:49:44;7.56;76.38
67279;DHT22;54193;53.746;10.058;2023-11-18T11:52:33;7.58;75.40
67279;DHT22;54193;53.746;10.058;2023-11-18T11:55:43;7.45;75.90
67279;DHT22;54193;53.746;10.058;2023-11-18T11:58:31;7.31;75.91
67279;DHT22;54193;53.746;10.058;2023-11-18T12:01:26;7.30;75.59
67279;DHT22;54193;53.746;10.058;2023-11-18T12:04:18;7.24;75.93
67279;DHT22;54193;53.746;10.058;2023-11-18T12:07:08;7.28;75.63
67279;DHT22;54193;53.746;10.058;2023-11-18T12:10:00;7.28;76.06
67279;DHT22;54193;53.746;10.058;2023-11-18T12:12:47;7.34;76.36
67279;DHT22;54193;53.746;10.058;2023-11-18T12:15:48;7.32;75.96
67279;DHT22;54193;53.746;10.058;2023-11-18T12:18:39;7.17;76.29
67279;DHT22;54193;53.746;10.058;2023-11-18T12:21:55;7.11;76.42
67279;DHT22;54193;53.746;10.058;2023-11-18T12:24:41;7.03;76.98
67279;DHT22;54193;53.746;10.058;2023-11-18T12:33:23;6.97;76.86
67279;DHT22;54193;53.746;10.058;2023-11-18T12:39:47;7.00;76.64
67279;DHT22;54193;53.746;10.058;2023-11-18T12:43:00;7.06;76.44
67279;DHT22;54193;53.746;10.058;2023-11-18T12:48:47;7.11;75.62
67279;DHT22;54193;53.746;10.058;2023-11-18T12:51:35;7.08;75.32
67279;DHT22;54193;53.746;10.058;2023-11-18T12:54:25;7.13;76.13
67279;DHT22;54193;53.746;10.058;2023-11-18T12:57:12;7.10;75.94
67279;DHT22;54193;53.746;10.058;2023-11-18T13:00:01;7.00;75.75
67279;DHT22;54193;53.746;10.058;2023-11-18T13:02:49;6.95;76.83
67279;DHT22;54193;53.746;10.058;2023-11-18T13:05:35;6.88;76.91
67279;DHT22;54193;53.746;10.058;2023-11-18T13:08:22;6.79;77.62
67279;DHT22;54193;53.746;10.058;2023-11-18T13:11:13;6.85;78.08
67279;DHT22;54193;53.746;10.058;2023-11-18T13:14:01;6.67;78.33
67279;DHT22;54193;53.746;10.058;2023-11-18T13:16:48;6.78;78.92
67279;DHT22;54193;53.746;10.058;2023-11-18T13:19:35;6.69;78.65
67279;DHT22;54193;53.746;10.058;2023-11-18T13:22:21;6.72;79.12
67279;DHT22;54193;53.746;10.058;2023-11-18T13:25:07;6.69;79.05
67279;DHT22;54193;53.746;10.058;2023-11-18T13:27:53;6.71;79.01
67279;DHT22;54193;53.746;10.058;2023-11-18T13:30:40;6.65;79.01
67279;DHT22;54193;53.746;10.058;2023-11-18T13:33:26;6.62;78.59
67279;DHT22;54193;53.746;10.058;2023-11-18T13:36:12;6.64;78.55
67279;DHT22;54193;53.746;10.058;2023-11-18T13:38:58;6.56;78.50
67279;DHT22;54193;53.746;10.058;2023-11-18T13:41:44;6.53;78.94
67279;DHT22;54193;53.746;10.058;2023-11-18T13:44:34;6.51;78.82
67279;DHT22;54193;53.746;10.058;2023-11-18T13:47:20;6.40;79.11
67279;DHT22;54193;53.746;10.058;2023-11-18T13:50:08;6.42;79.65
67279;DHT22;54193;53.746;10.058;2023-11-18T13:52:55;6.40;79.38
67279;DHT22;54193;53.746;10.058;2023-11-18T13:55:41;6.42;79.71
67279;DHT22;54193;53.746;10.058;2023-11-18T13:58:27;6.41;80.01
67279;DHT22;54193;53.746;10.058;2023-11-18T14:01:14;6.40;79.66
67279;DHT22;54193;53.746;10.058;2023-11-18T14:04:00;6.32;79.81
67279;DHT22;54193;53.746;10.058;2023-11-18T14:06:52;6.30;79.48
67279;DHT22;54193;53.746;10.058;2023-11-18T14:09:41;6.32;79.67
67279;DHT22;54193;53.746;10.058;2023-11-18T14:12:27;6.35;79.80
67279;DHT22;54193;53.746;10.058;2023-11-18T14:15:13;6.37;80.28
67279;DHT22;54193;53.746;10.058;2023-11-18T14:18:02;6.34;80.30
67279;DHT22;54193;53.746;10.058;2023-11-18T14:20:48;6.31;79.97
67279;DHT22;54193;53.746;10.058;2023-11-18T14:23:35;6.28;80.25
67279;DHT22;54193;53.746;10.058;2023-11-18T14:26:22;6.30;80.19
67279;DHT22;54193;53.746;10.058;2023-11-18T14:29:08;6.27;80.65
67279;DHT22;54193;53.746;10.058;2023-11-18T14:31:54;6.24;80.57
67279;DHT22;54193;53.746;10.058;2023-11-18T14:34:40;6.16;80.60
67279;DHT22;54193;53.746;10.058;2023-11-18T14:37:27;6.14;81.10
67279;DHT22;54193;53.746;10.058;2023-11-18T14:40:14;6.20;80.87
67279;DHT22;54193;53.746;10.058;2023-11-18T14:43:00;6.14;81.01
67279;DHT22;54193;53.746;10.058;2023-11-18T14:45:46;6.13;81.04
67279;DHT22;54193;53.746;10.058;2023-11-18T14:48:32;6.17;81.06
67279;DHT22;54193;53.746;10.058;2023-11-18T14:51:18;6.10;81.04
67279;DHT22;54193;53.746;10.058;2023-11-18T14:54:04;6.17;81.34
67279;DHT22;54193;53.746;10.058;2023-11-18T14:56:51;6.13;81.40
67279;DHT22;54193;53.746;10.058;2023-11-18T14:59:36;6.11;81.43
67279;DHT22;54193;53.746;10.058;2023-11-18T15:02:23;6.07;81.23
67279;DHT22;54193;53.746;10.058;2023-11-18T15:05:10;6.06;81.44
67279;DHT22;54193;53.746;10.058;2023-11-18T15:07:57;6.09;80.86
67279;DHT22;54193;53.746;10.058;2023-11-18T15:10:45;6.07;81.39
67279;DHT22;54193;53.746;10.058;2023-11-18T15:13:31;5.96;81.15
67279;DHT22;54193;53.746;10.058;2023-11-18T15:16:17;6.00;81.74
67279;DHT22;54193;53.746;10.058;2023-11-18T15:19:04;5.93;81.61
67279;DHT22;54193;53.746;10.058;2023-11-18T15:21:49;5.97;82.10
67279;DHT22;54193;53.746;10.058;2023-11-18T15:24:35;5.89;81.79
67279;DHT22;54193;53.746;10.058;2023-11-18T15:27:21;5.90;81.22
67279;DHT22;54193;53.746;10.058;2023-11-18T15:30:07;5.94;81.72
67279;DHT22;54193;53.746;10.058;2023-11-18T15:32:55;5.89;81.25
67279;DHT22;54193;53.746;10.058;2023-11-18T15:35:46;5.94;81.31
67279;DHT22;54193;53.746;10.058;2023-11-18T15:38:31;5.90;81.53
67279;DHT22;54193;53.746;10.058;2023-11-18T15:41:19;5.97;81.59
67279;DHT22;54193;53.746;10.058;2023-11-18T15:44:05;5.94;81.28
67279;DHT22;54193;53.746;10.058;2023-11-18T15:46:51;5.85;81.32
67279;DHT22;54193;53.746;10.058;2023-11-18T15:49:38;5.89;81.17
67279;DHT22;54193;53.746;10.058;2023-11-18T15:52:24;5.89;81.64
67279;DHT22;54193;53.746;10.058;2023-11-18T15:55:10;5.89;81.82
67279;DHT22;54193;53.746;10.058;2023-11-18T15:57:59;5.89;81.77
67279;DHT22;54193;53.746;10.058;2023-11-18T16:00:44;5.77;81.53
67279;DHT22;54193;53.746;10.058;2023-11-18T16:03:31;5.77;81.56
67279;DHT22;54193;53.746;10.058;2023-11-18T16:06:17;5.75;81.64
67279;DHT22;54193;53.746;10.058;2023-11-18T16:09:04;5.77;81.87
67279;DHT22;54193;53.746;10.058;2023-11-18T16:11:52;5.82;81.65
67279;DHT22;54193;53.746;10.058;2023-11-18T16:14:39;5.83;81.71
67279;DHT22;54193;53.746;10.058;2023-11-18T16:17:25;5.80;81.52
67279;DHT22;54193;53.746;10.058;2023-11-18T16:20:12;5.76;81.42
67279;DHT22;54193;53.746;10.058;2023-11-18T16:23:01;5.76;81.27
67279;DHT22;54193;53.746;10.058;2023-11-18T16:25:48;5.80;81.35
67279;DHT22;54193;53.746;10.058;2023-11-18T16:28:33;5.73;81.47
67279;DHT22;54193;53.746;10.058;2023-11-18T16:31:19;5.82;81.35
67279;DHT22;54193;53.746;10.058;2023-11-18T16:34:05;5.79;81.59
67279;DHT22;54193;53.746;10.058;2023-11-18T16:36:52;5.89;81.21
67279;DHT22;54193;53.746;10.058;2023-11-18T16:39:42;5.77;81.33
67279;DHT22;54193;53.746;10.058;2023-11-18T16:42:27;5.87;81.34
67279;DHT22;54193;53.746;10.058;2023-11-18T16:45:14;5.77;81.31
67279;DHT22;54193;53.746;10.058;2023-11-18T16:48:00;5.83;81.32
67279;DHT22;54193;53.746;10.058;2023-11-18T16:50:47;5.89;81.54
67279;DHT22;54193;53.746;10.058;2023-11-18T16:53:32;5.96;81.80
67279;DHT22;54193;53.746;10.058;2023-11-18T16:56:18;5.93;82.60
67279;DHT22;54193;53.746;10.058;2023-11-18T16:59:04;5.92;83.44
67279;DHT22;54193;53.746;10.058;2023-11-18T17:01:50;5.70;83.68
67279;DHT22;54193;53.746;10.058;2023-11-18T17:04:36;5.65;84.42
67279;DHT22;54193;53.746;10.058;2023-11-18T17:07:22;5.63;85.22
67279;DHT22;54193;53.746;10.058;2023-11-18T17:10:08;5.60;85.53
67279;DHT22;54193;53.746;10.058;2023-11-18T17:12:57;5.49;85.98
67279;DHT22;54193;53.746;10.058;2023-11-18T17:15:45;5.45;86.62
67279;DHT22;54193;53.746;10.058;2023-11-18T17:18:31;5.41;86.79
67279;DHT22;54193;53.746;10.058;2023-11-18T17:21:17;5.45;87.00
67279;DHT22;54193;53.746;10.058;2023-11-18T17:24:04;5.37;87.55
67279;DHT22;54193;53.746;10.058;2023-11-18T17:26:49;5.30;87.85
67279;DHT22;54193;53.746;10.058;2023-11-18T17:29:37;5.30;88.31
67279;DHT22;54193;53.746;10.058;2023-11-18T17:32:22;5.27;88.38
67279;DHT22;54193;53.746;10.058;2023-11-18T17:35:09;5.27;88.82
67279;DHT22;54193;53.746;10.058;2023-11-18T17:37:55;5.26;89.12
67279;DHT22;54193;53.746;10.058;2023-11-18T17:40:41;5.31;89.44
67279;DHT22;54193;53.746;10.058;2023-11-18T17:43:27;5.18;89.33
67279;DHT22;54193;53.746;10.058;2023-11-18T17:46:12;5.16;89.52
67279;DHT22;54193;53.746;10.058;2023-11-18T17:48:59;5.23;89.99
67279;DHT22;54193;53.746;10.058;2023-11-18T17:51:45;5.16;90.21
67279;DHT22;54193;53.746;10.058;2023-11-18T17:54:31;5.10;90.74